Tonalea, AZ

10:07 PM MST on July 13, 2014 (GMT -0700)
RAWS HOPI AZ US (MQHIA3) Elev 5579 ft | 35.86 °N, 110.61 °W | Change Station

Current weather conditions updated 54 minutes ago

Clear
Clear
70 °F
Feels Like 70 °F
N
6
Wind Variable Wind from East
Gusts 12.0 mph

Tomorrow is forecast to be Cooler than today.

Today
High -- | Low -- °F
--% Chance of Precip.
Yesterday
High -- | Low -- °F
Precip. -- in
5:17 AM 7:41 PM
Waning Gibbous, 95% visible
Pressure 29.92 in
Visibility 10.0 miles
Clouds Clear
Dew Point 59 °F
Humidity 69%
Rainfall 0.00 in
Snow Depth Not available.
UV 0 out of 12
Pollen 3.70 out of 12
Air Quality Not available.
Flu Activity Local Activity
METAR KINW 140456Z AUTO 21011KT 10SM CLR 26/12 A3017 RMK AO2 SLP131 T02560122

More Conditions Fewer Conditions

Pressure 29.92 in
Visibility 10.0 miles
Clouds Clear
Dew Point 59 °F
Humidity 69%
Rainfall 0.00 in
Snow Depth Not available.
UV 0 out of 12
Pollen 3.70 out of 12
Air Quality Not available.
Flu Activity Local Activity
METAR KINW 140456Z AUTO 21011KT 10SM CLR 26/12 A3017 RMK AO2 SLP131 T02560122

More Conditions Fewer Conditions

10-Day Weather Forecast

Almanac

Astronomy

Jul. 13, 2014 Rise Set
Actual Time 5:17 AM MST 7:41 PM MST
Civil Twilight 4:47 AM MST 8:10 PM MST
Nautical Twilight 4:11 AM MST 8:46 PM MST
Astronomical Twilight 3:31 AM MST 9:26 PM MST
Moon 8:37 PM MST (7/13) 6:47 AM MST (7/13)
Length of Visible Light 15h 22m
Length of Day
14h 23m
Tomorrow will be 1m 6s shorter.
Waning Gibbous, 95% of the Moon is Illuminated
Jul 14
Waning Gibbous
Jul 18
Last Quarter
Jul 26
New
Aug 3
First Quarter
Aug 10
Full

Yesterday's Extremes

State Highs State Lows

Community

WunderPhotos

Upload Photos

1,733,562 photos uploaded!

Nearby

Snow Depth

Station Depth Elevation
Snowslide Canyon 0 in 9730 ft
White Horse Lake 0 in 7180 ft
Workman Creek 1 in 6900 ft
Maverick Fork 0 in 9200 ft
Wildcat 0 in 7850 ft

Earthquake Activity

City Distance Mag. Time & Date
No recent earthquake activity has been reported nearby.
Minimum magnitude displayed is 2.5.

Coastal Water Temperatures

Place Temperature
No Stations Reporting

Nearby Weather Stations

Station Location Temp. Heat Index Dew Point Humidity Wind Precip. Elev Updated Type
RAWS HOPI AZ, Kykotsmovi, AZ 70 °F - 59 °F 69% East  at  6 mph 0.00 in / hr 5579 ft 9:13 PM MST MADIS
Kerley Valley, Tuba City, AZ 79.3 °F 79 °F 52 °F 39% West  at  0.0 mph - / hr 4587 ft 9:56 PM MST Normal

Show More Stations Show Fewer Stations